Terminal Aerodrome Forecast
Issued by NWS

Home | Current Version | Previous Version | Graphics & Text | Print | Product List | Glossary On
Versions: 1 2 3 4 5 6 7 8 9 10 11 12 13 14 15
000
FTUS43 KMPX 220520
TAFRWF
TAF
KRWF 220520Z 2206/2306 24005KT P6SM SCT120
     FM220900 32005KT P6SM -SHRA BKN050 OVC100
      TEMPO 2211/2215 4SM -TSRA BKN035CB OVC050
     FM221800 02007KT P6SM VCSH OVC050
     FM222100 31008KT P6SM BKN100=

USA.gov is the U.S. government's official web portal to all federal, state and local government web resources and services.